createdAt,value
2022-11-23T00:01:28.682Z,98904.84
2022-11-23T00:03:58.460Z,98910.75
2022-11-23T00:06:26.468Z,98912.16
2022-11-23T00:08:54.698Z,98917.31
2022-11-23T00:11:23.597Z,98914.16
2022-11-23T00:13:50.633Z,98912.59
2022-11-23T00:16:23.091Z,98908.84
2022-11-23T00:18:56.663Z,98912.13
2022-11-23T00:21:25.688Z,98910.00
2022-11-23T00:23:52.632Z,98910.63
2022-11-23T00:26:20.191Z,98901.91
2022-11-23T00:28:47.734Z,98909.22
2022-11-23T00:31:17.634Z,98901.59
2022-11-23T00:33:50.617Z,98906.97
2022-11-23T00:36:18.397Z,98905.81
2022-11-23T00:38:45.982Z,98899.94
2022-11-23T00:41:21.160Z,98895.25
2022-11-23T00:43:48.491Z,98903.81
2022-11-23T00:46:24.084Z,98905.34
2022-11-23T00:48:53.084Z,98906.75
2022-11-23T00:51:23.454Z,98902.75
2022-11-23T00:53:51.446Z,98899.22
2022-11-23T00:56:19.327Z,98899.94
2022-11-23T00:58:54.818Z,98909.09
2022-11-23T01:01:25.460Z,98911.78
2022-11-23T01:03:58.596Z,98905.09
2022-11-23T01:06:38.642Z,98907.09
2022-11-23T01:09:18.048Z,98903.59
2022-11-23T01:11:45.760Z,98894.31
2022-11-23T01:14:12.785Z,98885.75
2022-11-23T01:16:41.275Z,98897.84
2022-11-23T01:19:19.225Z,98875.06
2022-11-23T01:21:49.384Z,98896.06
2022-11-23T01:24:20.068Z,98898.66
2022-11-23T01:26:51.768Z,98889.00
2022-11-23T01:29:20.810Z,98893.84
2022-11-23T01:31:47.841Z,98883.16
2022-11-23T01:34:15.728Z,98895.84
2022-11-23T01:36:43.479Z,98904.16
2022-11-23T01:39:11.634Z,98905.59
2022-11-23T01:41:40.971Z,98899.47
2022-11-23T01:44:31.947Z,98890.53
2022-11-23T01:47:04.717Z,98889.59
2022-11-23T01:49:45.140Z,98883.03
2022-11-23T01:52:18.335Z,98901.56
2022-11-23T01:54:48.973Z,98890.09
2022-11-23T01:57:40.820Z,98903.69
2022-11-23T02:00:08.822Z,98897.94
2022-11-23T02:02:50.508Z,98898.75
2022-11-23T02:05:25.275Z,98903.69
2022-11-23T02:07:52.811Z,98908.16
2022-11-23T02:10:21.422Z,98911.78
2022-11-23T02:12:48.470Z,98907.34
2022-11-23T02:15:35.859Z,98906.28
2022-11-23T02:18:07.684Z,98905.81
2022-11-23T02:20:34.833Z,98910.97
2022-11-23T02:23:04.696Z,98912.13
2022-11-23T02:25:45.586Z,98909.56
2022-11-23T02:28:16.962Z,98905.34
2022-11-23T02:30:47.543Z,98902.03
2022-11-23T02:33:14.489Z,98901.69
2022-11-23T02:35:59.957Z,98921.78
2022-11-23T02:38:31.710Z,98909.91
2022-11-23T02:41:00.171Z,98897.34
2022-11-23T02:43:42.597Z,98887.25
2022-11-23T02:46:09.984Z,98909.78
2022-11-23T02:51:21.113Z,98887.16
2022-11-23T02:53:48.033Z,98900.19
2022-11-23T02:56:15.784Z,98898.53
2022-11-23T02:58:42.688Z,98905.09
2022-11-23T03:01:09.730Z,98905.09
2022-11-23T03:03:36.646Z,98905.69
2022-11-23T03:06:04.488Z,98908.38
2022-11-23T03:08:32.630Z,98906.97
2022-11-23T03:11:02.184Z,98910.50
2022-11-23T03:13:30.518Z,98921.06
2022-11-23T03:15:59.555Z,98922.00
2022-11-23T03:18:27.352Z,98908.72
2022-11-23T03:20:54.731Z,98920.47
2022-11-23T03:23:21.646Z,98922.09
2022-11-23T03:25:56.697Z,98926.13
2022-11-23T03:28:24.909Z,98916.13
2022-11-23T03:30:51.979Z,98923.88
2022-11-23T03:33:19.574Z,98925.50
2022-11-23T03:35:48.683Z,98922.00
2022-11-23T03:38:21.099Z,98918.38
2022-11-23T03:40:48.284Z,98920.09
2022-11-23T03:43:26.633Z,98914.13
2022-11-23T03:45:53.529Z,98910.97
2022-11-23T03:48:20.501Z,98914.25
2022-11-23T03:50:48.490Z,98918.03
2022-11-23T03:53:15.666Z,98916.00
2022-11-23T03:55:42.764Z,98915.91
2022-11-23T03:58:09.791Z,98916.25
2022-11-23T04:00:36.769Z,98915.78
2022-11-23T04:03:04.597Z,98912.72
2022-11-23T04:05:54.606Z,98912.84
2022-11-23T04:08:44.452Z,98921.91
2022-11-23T04:11:18.540Z,98918.94
2022-11-23T04:13:48.308Z,98918.84
2022-11-23T04:16:15.562Z,98925.50
2022-11-23T04:18:42.541Z,98921.75
2022-11-23T04:21:11.100Z,98914.38
2022-11-23T04:23:38.083Z,98923.41
2022-11-23T04:26:07.794Z,98922.94
2022-11-23T04:28:38.320Z,98921.28
2022-11-23T04:31:05.746Z,98928.34
2022-11-23T04:33:43.645Z,98926.34
2022-11-23T04:36:10.731Z,98925.97
2022-11-23T04:38:37.675Z,98919.16
2022-11-23T04:41:05.364Z,98922.91
2022-11-23T04:43:32.572Z,98929.00
2022-11-23T04:46:00.421Z,98931.34
2022-11-23T04:48:30.204Z,98941.47
2022-11-23T04:50:59.006Z,98944.50
2022-11-23T04:53:32.179Z,98938.78
2022-11-23T04:56:00.207Z,98924.09
2022-11-23T04:58:31.580Z,98936.19
2022-11-23T05:01:01.530Z,98943.81
2022-11-23T05:03:29.817Z,98946.53
2022-11-23T05:05:58.983Z,98938.66
2022-11-23T05:08:26.394Z,98943.69
2022-11-23T05:11:10.327Z,98940.44
2022-11-23T05:13:38.217Z,98934.53
2022-11-23T05:16:05.394Z,98939.59
2022-11-23T05:18:32.559Z,98945.00
2022-11-23T05:21:00.136Z,98937.59
2022-11-23T05:23:27.310Z,98938.91
2022-11-23T05:25:55.025Z,98946.66
2022-11-23T05:28:39.614Z,98946.66
2022-11-23T05:31:09.377Z,98945.84
2022-11-23T05:33:36.688Z,98949.09
2022-11-23T05:36:05.170Z,98950.88
2022-11-23T05:38:37.053Z,98944.19
2022-11-23T05:41:09.577Z,98947.13
2022-11-23T05:43:39.683Z,98945.47
2022-11-23T05:46:08.816Z,98950.19
2022-11-23T05:48:36.875Z,98953.22
2022-11-23T05:51:08.907Z,98949.94
2022-11-23T05:53:39.547Z,98957.94
2022-11-23T05:56:17.193Z,98949.47
2022-11-23T05:59:11.686Z,98951.22
2022-11-23T06:01:40.985Z,98958.16
2022-11-23T06:04:09.652Z,98956.50
2022-11-23T06:06:41.219Z,98948.75
2022-11-23T06:09:08.184Z,98949.47
2022-11-23T06:11:37.446Z,98949.38
2022-11-23T06:14:14.430Z,98947.72
2022-11-23T06:16:44.763Z,98948.06
2022-11-23T06:19:35.276Z,98951.59
2022-11-23T06:22:03.548Z,98947.25
2022-11-23T06:24:34.123Z,98957.22
2022-11-23T06:27:19.567Z,98956.50
2022-11-23T06:29:49.072Z,98955.81
2022-11-23T06:32:16.387Z,98954.19
2022-11-23T06:34:43.682Z,98955.56
2022-11-23T06:37:10.878Z,98944.06
2022-11-23T06:39:37.790Z,98959.09
2022-11-23T06:42:31.268Z,98955.31
2022-11-23T06:44:53.669Z,98955.69
2022-11-23T06:47:26.208Z,98962.63
2022-11-23T06:49:55.309Z,98959.34
2022-11-23T06:52:30.798Z,98955.09
2022-11-23T06:54:58.102Z,98958.38
2022-11-23T06:57:25.650Z,98959.34
2022-11-23T06:59:53.961Z,98969.22
2022-11-23T07:02:26.990Z,98964.75
2022-11-23T07:04:56.638Z,98967.09
2022-11-23T07:07:24.772Z,98958.50
2022-11-23T07:10:03.919Z,98971.91
2022-11-23T07:12:40.913Z,98975.53
2022-11-23T07:15:09.454Z,98984.34
2022-11-23T07:17:41.858Z,98980.94
2022-11-23T07:20:12.041Z,98984.00
2022-11-23T07:22:39.202Z,98984.44
2022-11-23T07:25:06.804Z,98986.22
2022-11-23T07:27:33.921Z,98989.63
2022-11-23T07:30:02.896Z,98988.13
2022-11-23T07:32:31.984Z,98983.88
2022-11-23T07:34:59.086Z,98991.50
2022-11-23T07:37:28.012Z,98988.13
2022-11-23T07:39:58.112Z,98987.28
2022-11-23T07:42:34.557Z,98990.09
2022-11-23T07:45:04.149Z,98987.84
2022-11-23T07:47:31.457Z,98984.34
2022-11-23T07:49:58.591Z,98974.91
2022-11-23T07:52:25.618Z,98979.16
2022-11-23T07:54:52.578Z,98983.13
2022-11-23T07:57:19.489Z,98986.66
2022-11-23T07:59:46.424Z,98980.88
2022-11-23T08:02:15.575Z,98971.88
2022-11-23T08:04:42.543Z,98984.91
2022-11-23T08:07:09.535Z,98975.06
2022-11-23T08:09:37.087Z,98972.72
2022-11-23T08:12:04.548Z,98993.97
2022-11-23T08:14:31.950Z,98987.03
2022-11-23T08:16:59.143Z,98966.84
2022-11-23T08:19:26.136Z,98985.97
2022-11-23T08:21:53.227Z,98991.50
2022-11-23T08:24:20.213Z,98984.69
2022-11-23T08:26:47.223Z,98991.84
2022-11-23T08:29:14.286Z,98984.34
2022-11-23T08:31:41.385Z,98990.66
2022-11-23T08:34:08.251Z,98943.97
2022-11-23T08:36:35.207Z,98998.53
2022-11-23T08:39:02.145Z,98997.13
2022-11-23T08:41:29.161Z,98999.38
2022-11-23T08:43:56.204Z,98999.13
2022-11-23T08:46:23.174Z,98997.25
2022-11-23T08:48:50.184Z,98998.06
2022-11-23T08:51:22.576Z,99004.97
2022-11-23T08:53:50.683Z,99001.56
2022-11-23T08:56:17.946Z,98997.66
2022-11-23T08:58:44.901Z,99007.44
2022-11-23T09:01:14.889Z,99005.19
2022-11-23T09:03:43.082Z,98997.44
2022-11-23T09:06:10.789Z,98995.53
2022-11-23T09:08:38.119Z,98994.97
2022-11-23T09:11:08.106Z,99000.38
2022-11-23T09:13:37.293Z,99000.34
2022-11-23T09:16:05.823Z,98991.22
2022-11-23T09:18:33.666Z,98999.66
2022-11-23T09:21:04.145Z,98998.72
2022-11-23T09:23:31.397Z,98996.13
2022-11-23T09:25:59.970Z,98993.75
2022-11-23T09:28:28.561Z,98996.78
2022-11-23T09:30:56.928Z,98995.41
2022-11-23T09:33:25.224Z,99001.28
2022-11-23T09:36:02.357Z,98995.22
2022-11-23T09:38:51.923Z,98995.91
2022-11-23T09:41:24.014Z,98995.66
2022-11-23T09:44:08.661Z,98996.34
2022-11-23T09:46:52.842Z,98996.59
2022-11-23T09:49:29.080Z,98998.94
2022-11-23T09:51:57.057Z,99001.28
2022-11-23T09:54:32.501Z,98992.94
2022-11-23T09:57:01.803Z,99006.66
2022-11-23T09:59:47.207Z,98990.72
2022-11-23T10:02:23.435Z,99006.00
2022-11-23T10:04:55.745Z,99002.22
2022-11-23T10:07:28.446Z,99005.19
2022-11-23T10:10:09.372Z,99000.09
2022-11-23T10:12:51.279Z,99000.47
2022-11-23T10:15:26.989Z,98994.81
2022-11-23T10:18:20.465Z,98998.69
2022-11-23T10:21:24.721Z,99003.88
2022-11-23T10:23:55.710Z,99000.09
2022-11-23T10:26:34.557Z,99003.88
2022-11-23T10:29:12.626Z,99004.09
2022-11-23T10:31:44.136Z,99012.56
2022-11-23T10:34:13.714Z,99014.56
2022-11-23T10:36:42.014Z,99006.25
2022-11-23T10:39:20.499Z,99010.22
2022-11-23T10:41:47.794Z,99011.06
2022-11-23T10:44:38.921Z,99009.16
2022-11-23T10:47:05.906Z,99007.75
2022-11-23T10:49:35.109Z,99011.06
2022-11-23T10:52:25.799Z,99014.44
2022-11-23T10:54:54.488Z,99021.28
2022-11-23T10:57:29.887Z,99020.34
2022-11-23T11:00:04.974Z,99013.19
2022-11-23T11:02:39.745Z,99026.56
2022-11-23T11:05:53.515Z,99023.78
2022-11-23T11:08:19.159Z,99033.31
2022-11-23T11:10:50.261Z,99029.53
2022-11-23T11:13:39.032Z,99030.50
2022-11-23T11:16:18.323Z,99033.81
2022-11-23T11:18:45.293Z,99029.78
2022-11-23T11:21:21.084Z,99029.56
2022-11-23T11:24:14.844Z,99034.47
2022-11-23T11:26:51.102Z,99041.31
2022-11-23T11:29:32.694Z,99038.84
2022-11-23T11:32:12.098Z,99047.16
2022-11-23T11:34:48.811Z,99043.19
2022-11-23T11:37:39.961Z,99049.06
2022-11-23T11:40:38.188Z,99054.56
2022-11-23T11:43:37.805Z,99062.00
2022-11-23T11:46:28.509Z,99052.94
2022-11-23T11:49:04.783Z,99064.94
2022-11-23T11:51:38.180Z,99065.50
2022-11-23T11:54:28.204Z,99072.09
2022-11-23T11:57:05.929Z,99071.00
2022-11-23T11:59:43.015Z,99070.91
2022-11-23T12:02:19.329Z,99072.91
2022-11-23T12:05:10.671Z,99080.53
2022-11-23T12:07:46.811Z,99081.72
2022-11-23T12:10:24.407Z,99090.44
2022-11-23T12:12:52.307Z,99089.72
2022-11-23T12:18:23.858Z,99096.19
2022-11-23T12:21:14.082Z,99102.16
2022-11-23T12:24:05.366Z,99100.03
2022-11-23T12:26:50.201Z,99112.38
2022-11-23T12:29:49.367Z,99111.09
2022-11-23T12:32:57.674Z,99118.13
2022-11-23T12:35:52.430Z,99111.34
2022-11-23T12:38:35.089Z,99118.75
2022-11-23T12:41:19.971Z,99122.38
2022-11-23T12:44:02.054Z,99125.53
2022-11-23T12:46:41.088Z,99130.59
2022-11-23T12:49:36.119Z,99130.47
2022-11-23T12:52:17.884Z,99134.59
2022-11-23T12:54:54.464Z,99131.78
2022-11-23T12:57:28.334Z,99130.59
2022-11-23T13:00:03.190Z,99140.00
2022-11-23T13:03:26.455Z,99143.72
2022-11-23T13:06:27.135Z,99149.13
2022-11-23T13:09:12.349Z,99145.16
2022-11-23T13:12:26.438Z,99149.47
2022-11-23T13:15:20.689Z,99138.44
2022-11-23T13:18:25.858Z,99144.41
2022-11-23T13:21:04.095Z,99153.13
2022-11-23T13:23:38.831Z,99146.53
2022-11-23T13:26:24.038Z,99158.75
2022-11-23T13:28:53.172Z,99154.53
2022-11-23T13:31:25.173Z,99150.53
2022-11-23T13:33:55.475Z,99164.16
2022-11-23T13:37:10.615Z,99162.28
2022-11-23T13:39:43.361Z,99160.41
2022-11-23T13:42:11.581Z,99167.22
2022-11-23T13:44:38.706Z,99171.47
2022-11-23T13:47:16.213Z,99168.06
2022-11-23T13:49:52.907Z,99118.19
2022-11-23T13:52:22.735Z,99179.91
2022-11-23T13:55:11.230Z,99182.50
2022-11-23T13:57:39.710Z,99178.97
2022-11-23T14:00:44.265Z,99181.91
2022-11-23T14:03:42.473Z,99191.88
2022-11-23T14:06:26.400Z,99196.53
2022-11-23T14:09:11.493Z,99200.66
2022-11-23T14:11:53.597Z,99204.28
2022-11-23T14:14:24.501Z,99208.06
2022-11-23T14:16:54.469Z,99200.41
2022-11-23T14:19:35.389Z,99203.59
2022-11-23T14:22:08.623Z,99207.59
2022-11-23T14:24:45.232Z,99174.88
2022-11-23T14:27:57.790Z,99209.09
2022-11-23T14:31:04.656Z,99218.06
2022-11-23T14:33:43.430Z,99224.88
2022-11-23T14:36:20.106Z,99224.66
2022-11-23T14:39:08.872Z,99229.13
2022-11-23T14:41:36.758Z,99224.88
2022-11-23T14:44:06.219Z,99226.75
2022-11-23T14:46:33.872Z,99223.94
2022-11-23T14:49:09.782Z,99227.84
2022-11-23T14:51:43.681Z,99232.06
2022-11-23T14:54:11.853Z,99223.72
2022-11-23T14:56:47.593Z,99231.69
2022-11-23T14:59:17.665Z,99246.75
2022-11-23T15:01:54.521Z,99236.44
2022-11-23T15:04:23.776Z,99239.56
2022-11-23T15:06:54.383Z,99240.59
2022-11-23T15:09:42.921Z,99248.44
2022-11-23T15:12:27.884Z,99248.06
2022-11-23T15:14:59.775Z,99233.88
2022-11-23T15:17:27.266Z,99250.59
2022-11-23T15:19:58.731Z,99232.94
2022-11-23T15:22:27.351Z,99263.59
2022-11-23T15:24:55.303Z,99262.34
2022-11-23T15:27:29.601Z,99266.50
2022-11-23T15:29:59.621Z,99216.09
2022-11-23T15:32:33.868Z,99274.75
2022-11-23T15:35:07.226Z,99280.22
2022-11-23T15:37:43.708Z,99280.56
2022-11-23T15:40:18.539Z,99267.50
2022-11-23T15:42:48.482Z,99269.66
2022-11-23T15:45:34.799Z,99297.69
2022-11-23T15:48:04.581Z,99293.97
2022-11-23T15:50:34.223Z,99299.84
2022-11-23T15:53:02.343Z,99288.94
2022-11-23T15:55:30.365Z,99299.66
2022-11-23T15:57:58.293Z,99303.25
2022-11-23T16:00:26.317Z,99312.25
2022-11-23T16:02:53.633Z,99301.19
2022-11-23T16:05:23.036Z,99313.09
2022-11-23T16:07:56.361Z,99308.63
2022-11-23T16:10:30.638Z,99315.06
2022-11-23T16:12:58.930Z,99312.81
2022-11-23T16:15:32.742Z,99317.78
2022-11-23T16:18:00.827Z,99321.78
2022-11-23T16:20:29.704Z,99318.47
2022-11-23T16:22:59.544Z,99315.72
2022-11-23T16:25:33.737Z,99316.09
2022-11-23T16:28:03.707Z,99312.81
2022-11-23T16:30:39.292Z,99320.88
2022-11-23T16:33:07.033Z,99330.88
2022-11-23T16:35:34.100Z,99326.44
2022-11-23T16:38:01.010Z,99333.66
2022-11-23T16:40:28.141Z,99330.13
2022-11-23T16:42:57.173Z,99335.94
2022-11-23T16:45:24.752Z,99329.84
2022-11-23T16:48:02.767Z,99337.56
2022-11-23T16:50:31.723Z,99335.50
2022-11-23T16:53:11.427Z,99336.25
2022-11-23T16:55:42.318Z,99345.72
2022-11-23T16:58:14.825Z,99346.44
2022-11-23T17:00:42.410Z,99356.66
2022-11-23T17:03:17.258Z,99360.00
2022-11-23T17:05:44.634Z,99354.50
2022-11-23T17:08:12.024Z,99362.78
2022-11-23T17:10:40.513Z,99366.69
2022-11-23T17:13:13.335Z,99365.03
2022-11-23T17:15:40.509Z,99345.84
2022-11-23T17:18:14.555Z,99362.56
2022-11-23T17:20:41.771Z,99374.50
2022-11-23T17:23:09.024Z,99373.28
2022-11-23T17:25:36.551Z,99375.00
2022-11-23T17:28:06.068Z,99376.59
2022-11-23T17:30:33.272Z,99382.06
2022-11-23T17:33:00.726Z,99382.56
2022-11-23T17:35:28.282Z,99333.66
2022-11-23T17:37:55.355Z,99369.34
2022-11-23T17:40:24.555Z,99387.97
2022-11-23T17:42:51.607Z,99403.44
2022-11-23T17:45:18.634Z,99398.69
2022-11-23T17:47:46.161Z,99413.50
2022-11-23T17:50:17.771Z,99413.00
2022-11-23T17:52:48.477Z,99401.25
2022-11-23T17:55:16.634Z,99410.41
2022-11-23T17:57:43.614Z,99415.38
2022-11-23T18:00:22.641Z,99423.63
2022-11-23T18:02:49.860Z,99419.31
2022-11-23T18:05:21.433Z,99421.91
2022-11-23T18:07:50.886Z,99420.94
2022-11-23T18:10:18.369Z,99415.78
2022-11-23T18:12:46.275Z,99424.28
2022-11-23T18:15:13.658Z,99416.56
2022-11-23T18:17:41.206Z,99427.13
2022-11-23T18:20:10.321Z,99427.84
2022-11-23T18:22:38.285Z,99430.63
2022-11-23T18:25:05.868Z,99424.09
2022-11-23T18:27:33.058Z,99413.97
2022-11-23T18:30:00.012Z,99432.63
2022-11-23T18:32:27.168Z,99415.91
2022-11-23T18:34:54.129Z,99431.41
2022-11-23T18:37:21.128Z,99427.94
2022-11-23T18:39:48.178Z,99394.38
2022-11-23T18:42:15.271Z,99430.09
2022-11-23T18:44:42.780Z,99437.75
2022-11-23T18:47:09.735Z,99436.59
2022-11-23T18:49:36.759Z,99430.44
2022-11-23T18:52:03.702Z,99442.03
2022-11-23T18:54:30.576Z,99435.78
2022-11-23T18:56:57.810Z,99442.84
2022-11-23T19:02:12.201Z,99442.81
2022-11-23T19:04:39.916Z,99461.00
2022-11-23T19:07:07.089Z,99466.81
2022-11-23T19:09:34.845Z,99470.03
2022-11-23T19:12:02.313Z,99469.19
2022-11-23T19:14:29.282Z,99475.47
2022-11-23T19:16:56.200Z,99483.84
2022-11-23T19:19:23.288Z,99485.88
2022-11-23T19:21:50.324Z,99480.81
2022-11-23T19:24:17.453Z,99456.28
2022-11-23T19:26:44.418Z,99486.09
2022-11-23T19:29:11.679Z,99493.25
2022-11-23T19:31:38.777Z,99496.03
2022-11-23T19:34:07.009Z,99502.19
2022-11-23T19:36:38.526Z,99497.50
2022-11-23T19:39:06.199Z,99505.41
2022-11-23T19:41:33.389Z,99501.72
2022-11-23T19:44:01.268Z,99504.50
2022-11-23T19:46:30.735Z,99504.31
2022-11-23T19:48:58.740Z,99484.81
2022-11-23T19:51:26.882Z,99509.81
2022-11-23T19:53:57.102Z,99502.47
2022-11-23T19:56:26.138Z,99513.13
2022-11-23T19:58:55.033Z,99512.22
2022-11-23T20:01:23.757Z,99516.81
2022-11-23T20:03:53.506Z,99519.13
2022-11-23T20:06:27.124Z,99528.41
2022-11-23T20:08:55.357Z,99526.00
2022-11-23T20:11:23.101Z,99505.13
2022-11-23T20:13:50.274Z,99519.59
2022-11-23T20:16:19.402Z,99522.16
2022-11-23T20:18:49.186Z,99527.31
2022-11-23T20:21:18.183Z,99524.81
2022-11-23T20:23:46.699Z,99531.44
2022-11-23T20:26:16.217Z,99527.50
2022-11-23T20:28:43.379Z,99534.09
2022-11-23T20:31:24.257Z,99533.28
2022-11-23T20:33:51.610Z,99536.94
2022-11-23T20:36:20.905Z,99542.53
2022-11-23T20:38:48.493Z,99554.34
2022-11-23T20:41:15.571Z,99553.25
2022-11-23T20:43:43.829Z,99556.91
2022-11-23T20:46:11.358Z,99546.94
2022-11-23T20:48:39.456Z,99575.03
2022-11-23T20:51:10.550Z,99582.47
2022-11-23T20:53:38.001Z,99586.13
2022-11-23T20:56:10.313Z,99588.44
2022-11-23T20:58:38.132Z,99595.25
2022-11-23T21:01:13.621Z,99596.34
2022-11-23T21:03:42.585Z,99602.34
2022-11-23T21:06:12.261Z,99597.19
2022-11-23T21:08:43.432Z,99596.81
2022-11-23T21:11:39.601Z,99595.16
2022-11-23T21:14:17.270Z,99595.34
2022-11-23T21:16:56.001Z,99594.59
2022-11-23T21:19:33.186Z,99598.78
2022-11-23T21:22:02.837Z,99601.31
2022-11-23T21:24:29.813Z,99605.28
2022-11-23T21:26:56.955Z,99607.56
2022-11-23T21:29:24.051Z,99575.69
2022-11-23T21:31:51.101Z,99606.38
2022-11-23T21:34:20.564Z,99612.28
2022-11-23T21:36:48.617Z,99612.28
2022-11-23T21:39:16.198Z,99617.97
2022-11-23T21:41:43.825Z,99605.28
2022-11-23T21:44:11.272Z,99613.72
2022-11-23T21:46:39.831Z,99623.22
2022-11-23T21:49:07.186Z,99618.72
2022-11-23T21:51:35.376Z,99625.34
2022-11-23T21:54:05.317Z,99629.00
2022-11-23T21:56:32.923Z,99605.53
2022-11-23T21:59:00.413Z,99612.28
2022-11-23T22:01:32.954Z,99634.16
2022-11-23T22:04:02.537Z,99629.81
2022-11-23T22:06:29.981Z,99631.97
2022-11-23T22:08:59.975Z,99628.47
2022-11-23T22:11:32.445Z,99603.97
2022-11-23T22:14:02.416Z,99635.63
2022-11-23T22:16:34.607Z,99645.69
2022-11-23T22:19:02.256Z,99634.91
2022-11-23T22:21:33.458Z,99645.69
2022-11-23T22:24:00.982Z,99645.47
2022-11-23T22:26:28.315Z,99613.06
2022-11-23T22:28:56.152Z,99655.75
2022-11-23T22:31:25.806Z,99655.03
2022-11-23T22:33:53.501Z,99657.69
2022-11-23T22:36:23.057Z,99656.84
2022-11-23T22:39:01.322Z,99663.81
2022-11-23T22:41:30.016Z,99662.16
2022-11-23T22:43:57.323Z,99664.59
2022-11-23T22:46:25.596Z,99658.59
2022-11-23T22:48:53.443Z,99659.19
2022-11-23T22:51:22.815Z,99667.66
2022-11-23T22:53:56.968Z,99668.72
2022-11-23T22:56:24.124Z,99671.88
2022-11-23T22:58:51.204Z,99682.00
2022-11-23T23:01:24.553Z,99673.97
2022-11-23T23:03:56.705Z,99675.16
2022-11-23T23:06:29.379Z,99672.81
2022-11-23T23:08:59.327Z,99668.50
2022-11-23T23:11:28.688Z,99676.78
2022-11-23T23:13:56.027Z,99676.69
2022-11-23T23:16:23.502Z,99669.75
2022-11-23T23:18:51.592Z,99670.66
2022-11-23T23:21:21.180Z,99643.75
2022-11-23T23:23:50.961Z,99666.91
2022-11-23T23:26:21.459Z,99664.94
2022-11-23T23:28:48.990Z,99669.25
2022-11-23T23:31:17.338Z,99677.03
2022-11-23T23:33:47.041Z,99673.72
2022-11-23T23:36:19.969Z,99678.94
2022-11-23T23:38:47.456Z,99672.22
2022-11-23T23:41:14.586Z,99681.59
2022-11-23T23:43:42.080Z,99685.59
2022-11-23T23:46:11.629Z,99688.75
2022-11-23T23:48:40.696Z,99692.13
2022-11-23T23:51:16.083Z,99691.81
2022-11-23T23:53:44.214Z,99695.88
2022-11-23T23:56:26.102Z,99707.56
2022-11-23T23:58:55.911Z,99701.53
